Time;durP1;ratioP1;P1;durP2;ratioP2;P2;SDS_P1;SDS_P2;PMS_P1;PMS_P2;Temp;Humidity;BMP_temperature;BMP_pressure;BME280_temperature;BME280_humidity;BME280_pressure;Samples;Min_cycle;Max_cycle;Signal;HPM_P1;HPM_P2
2023/06/11 00:02:11;;;;;;;6.00;3.60;;;;;;;19.82;100.00;100430.09;4919180;29;20052;-86
2023/06/11 00:04:39;;;;;;;4.50;4.10;;;;;;;19.76;100.00;100437.03;4919052;29;20052;-86
2023/06/11 00:07:07;;;;;;;4.05;3.50;;;;;;;19.70;100.00;100428.13;4917834;29;20511;-87
2023/06/11 00:09:35;;;;;;;3.85;3.20;;;;;;;19.63;100.00;100427.06;4918969;29;20060;-87
2023/06/11 00:12:04;;;;;;;4.75;3.55;;;;;;;19.47;100.00;100428.56;4917821;29;20043;-87
2023/06/11 00:14:31;;;;;;;3.88;3.22;;;;;;;19.32;100.00;100418.94;4902113;29;20055;-88
2023/06/11 00:17:00;;;;;;;4.47;3.75;;;;;;;19.23;100.00;100417.41;4917747;29;20044;-87
2023/06/11 00:19:29;;;;;;;5.43;3.63;;;;;;;19.43;100.00;100421.28;4918946;29;20048;-87
2023/06/11 00:21:58;;;;;;;5.05;3.50;;;;;;;19.47;100.00;100408.34;4917649;29;20052;-88
2023/06/11 00:24:27;;;;;;;3.97;3.08;;;;;;;19.46;100.00;100415.84;4918854;29;20052;-89
2023/06/11 00:26:55;;;;;;;3.75;3.25;;;;;;;19.44;100.00;100422.88;4917427;29;20055;-88
2023/06/11 00:29:23;;;;;;;3.90;3.28;;;;;;;19.30;100.00;100412.94;4901710;29;20052;-88
2023/06/11 00:31:51;;;;;;;4.63;3.60;;;;;;;19.40;100.00;100421.97;4917529;29;20395;-87
2023/06/11 00:34:19;;;;;;;3.63;3.25;;;;;;;19.42;100.00;100408.56;4917461;29;20384;-89
2023/06/11 00:36:47;;;;;;;5.78;3.08;;;;;;;19.44;100.00;100426.47;4901678;29;20392;-88
2023/06/11 00:39:16;;;;;;;6.85;2.80;;;;;;;19.51;100.00;100423.16;4901690;29;20051;-88
2023/06/11 00:41:45;;;;;;;5.03;3.33;;;;;;;19.40;100.00;100416.41;4917365;29;20044;-89
2023/06/11 00:44:18;;;;;;;3.80;3.40;;;;;;;19.53;100.00;100425.56;4901637;29;20413;-88
2023/06/11 00:46:47;;;;;;;3.55;2.97;;;;;;;19.59;100.00;100424.16;4917038;29;20052;-88
2023/06/11 00:49:15;;;;;;;3.08;2.75;;;;;;;19.40;100.00;100416.41;4886021;29;20526;-88
2023/06/11 00:51:46;;;;;;;4.10;2.97;;;;;;;19.44;100.00;100411.78;4916939;29;20491;-87
2023/06/11 00:54:16;;;;;;;2.95;2.70;;;;;;;19.52;100.00;100419.22;4901291;29;20047;-88
2023/06/11 00:56:47;;;;;;;3.15;2.35;;;;;;;19.45;100.00;100418.94;4918123;29;20075;-88
2023/06/11 00:59:19;;;;;;;3.60;2.78;;;;;;;19.50;100.00;100424.28;4917138;29;20400;-88
2023/06/11 01:02:05;;;;;;;3.80;2.97;;;;;;;19.44;100.00;100412.59;4916915;29;20057;-88
2023/06/11 01:04:35;;;;;;;3.17;2.28;;;;;;;19.48;100.00;100412.72;4901131;29;20060;-87
2023/06/11 01:07:07;;;;;;;4.20;2.75;;;;;;;19.55;100.00;100415.72;4901066;29;20048;-89
2023/06/11 01:09:37;;;;;;;3.85;3.10;;;;;;;19.42;100.00;100419.66;4901001;29;20392;-88
2023/06/11 01:12:08;;;;;;;6.00;3.10;;;;;;;19.44;100.00;100411.78;4901028;29;20075;-88
2023/06/11 01:14:38;;;;;;;2.72;2.40;;;;;;;19.42;100.00;100412.16;4916841;29;20044;-87
2023/06/11 01:17:15;;;;;;;2.92;2.42;;;;;;;19.45;100.00;100414.22;4916532;29;20407;-87
2023/06/11 01:20:10;;;;;;;2.63;2.38;;;;;;;19.32;100.00;100404.25;4916681;29;20051;-88
2023/06/11 01:22:57;;;;;;;3.28;2.67;;;;;;;19.47;100.00;100411.09;4916526;29;20051;-88
2023/06/11 01:26:16;;;;;;;4.18;3.03;;;;;;;19.44;100.00;100406.22;4916384;29;20067;-88
2023/06/11 01:28:47;;;;;;;3.42;2.58;;;;;;;19.42;100.00;100405.78;4892986;29;20060;-88
2023/06/11 01:31:16;;;;;;;3.30;2.53;;;;;;;19.26;100.00;100400.88;4916204;29;20063;-88
2023/06/11 01:33:46;;;;;;;3.03;2.65;;;;;;;19.34;100.00;100419.41;4916389;29;20126;-88
2023/06/11 01:36:18;;;;;;;4.78;2.85;;;;;;;19.23;100.00;100401.59;4916322;29;20051;-89
2023/06/11 01:38:46;;;;;;;3.80;2.58;;;;;;;19.30;100.00;100401.00;4916265;29;20048;-88
2023/06/11 01:41:27;;;;;;;4.68;2.83;;;;;;;19.38;100.00;100407.63;4884768;29;20056;-89
2023/06/11 01:43:55;;;;;;;3.88;3.00;;;;;;;19.20;100.00;100394.75;4916248;29;20052;-88
2023/06/11 01:46:23;;;;;;;4.18;3.08;;;;;;;19.19;100.00;100397.88;4915975;29;20059;-89
2023/06/11 01:48:51;;;;;;;2.85;2.55;;;;;;;19.21;100.00;100403.88;4900494;29;20526;-89
2023/06/11 01:51:21;;;;;;;2.92;2.63;;;;;;;19.28;100.00;100404.16;4900121;29;20065;-85
2023/06/11 01:53:51;;;;;;;3.13;2.83;;;;;;;19.16;100.00;100407.69;4899567;29;20052;-88
2023/06/11 01:56:19;;;;;;;3.15;2.85;;;;;;;19.29;100.00;100400.22;4915878;29;20056;-88
2023/06/11 01:58:47;;;;;;;4.95;2.92;;;;;;;18.94;100.00;100393.06;4915917;29;20048;-89
2023/06/11 02:01:15;;;;;;;2.65;2.45;;;;;;;19.01;100.00;100389.72;4915643;29;20060;-88
2023/06/11 02:03:43;;;;;;;7.60;2.58;;;;;;;18.96;100.00;100381.59;4899652;29;20052;-89
2023/06/11 02:06:11;;;;;;;3.20;2.90;;;;;;;19.06;100.00;100377.59;4915731;29;20040;-90
2023/06/11 02:08:39;;;;;;;3.33;2.80;;;;;;;19.17;100.00;100380.78;4900043;29;20145;-90
2023/06/11 02:11:08;;;;;;;2.58;2.35;;;;;;;19.03;100.00;100370.00;4884177;29;20052;-90
2023/06/11 02:13:36;;;;;;;3.53;3.22;;;;;;;19.06;100.00;100374.84;4915748;29;20048;-90
2023/06/11 02:16:04;;;;;;;3.03;2.72;;;;;;;19.15;100.00;100377.50;4899881;29;20048;-92
2023/06/11 02:18:32;;;;;;;3.20;2.70;;;;;;;19.21;100.00;100378.91;4884297;29;20091;-91
2023/06/11 02:21:00;;;;;;;3.30;2.80;;;;;;;19.09;100.00;100373.34;4899939;29;20052;-90
2023/06/11 02:23:29;;;;;;;4.43;3.00;;;;;;;19.01;100.00;100373.06;4899976;29;20043;-92
2023/06/11 02:25:57;;;;;;;3.30;2.85;;;;;;;18.96;100.00;100366.94;4899981;29;20056;-92
2023/06/11 02:28:26;;;;;;;3.75;2.60;;;;;;;18.91;100.00;100368.78;4899560;29;20044;-92
2023/06/11 02:30:54;;;;;;;7.32;2.90;;;;;;;18.89;100.00;100373.88;4884029;29;20082;-92
2023/06/11 02:33:22;;;;;;;8.05;3.00;;;;;;;18.94;100.00;100373.66;4884046;29;20048;-92
2023/06/11 02:35:50;;;;;;;5.30;3.05;;;;;;;18.89;100.00;100373.88;4899684;29;20055;-91
2023/06/11 02:38:18;;;;;;;3.35;3.05;;;;;;;18.84;100.00;100373.25;4884180;29;20053;-91
2023/06/11 02:40:46;;;;;;;2.88;2.58;;;;;;;18.79;100.00;100368.75;4899690;29;20056;-91
2023/06/11 02:43:14;;;;;;;4.15;3.08;;;;;;;18.78;100.00;100378.22;4899547;29;20416;-92
2023/06/11 02:45:42;;;;;;;5.05;3.00;;;;;;;18.75;100.00;100376.09;4883906;29;20052;-92
2023/06/11 02:48:10;;;;;;;3.92;2.40;;;;;;;18.83;100.00;100382.72;4884310;29;20411;-92
2023/06/11 02:50:38;;;;;;;3.45;3.10;;;;;;;18.78;100.00;100376.22;4883989;29;20056;-92
2023/06/11 02:53:06;;;;;;;3.58;3.00;;;;;;;18.75;100.00;100382.47;4899726;29;20063;-92
2023/06/11 02:55:34;;;;;;;3.80;3.08;;;;;;;18.77;100.00;100380.16;4899540;29;20059;-91
2023/06/11 02:58:02;;;;;;;3.40;2.90;;;;;;;18.61;100.00;100381.94;4899598;29;20048;-91
2023/06/11 03:00:30;;;;;;;6.20;3.10;;;;;;;18.56;100.00;100391.28;4899419;29;20395;-91
2023/06/11 03:02:58;;;;;;;4.22;2.88;;;;;;;18.48;100.00;100395.72;4899460;29;20059;-89
2023/06/11 03:05:32;;;;;;;;;;;;;;;18.42;100.00;100383.25;4898783;29;20063;-92
2023/06/11 03:08:00;;;;;;;6.07;3.75;;;;;;;18.43;100.00;100390.41;4899287;29;19934;-91
2023/06/11 03:10:29;;;;;;;3.08;2.70;;;;;;;18.53;100.00;100387.22;4883495;29;20063;-91
2023/06/11 03:12:57;;;;;;;3.17;2.60;;;;;;;18.56;100.00;100384.94;4899364;29;20384;-86
2023/06/11 03:15:25;;;;;;;3.67;2.70;;;;;;;18.66;100.00;100398.34;4913918;29;20048;-85
2023/06/11 03:17:53;;;;;;;3.70;3.22;;;;;;;18.67;100.00;100394.44;4899179;29;20048;-86
2023/06/11 03:20:22;;;;;;;3.75;2.63;;;;;;;18.72;100.00;100391.44;4914735;29;20048;-85
2023/06/11 03:22:51;;;;;;;4.18;3.13;;;;;;;18.65;100.00;100380.13;4914692;29;20056;-85
2023/06/11 03:25:20;;;;;;;3.58;3.17;;;;;;;18.52;100.00;100388.38;4915801;29;20439;-85
2023/06/11 03:27:49;;;;;;;4.00;2.92;;;;;;;18.53;100.00;100383.66;4914684;29;20048;-86
2023/06/11 03:30:17;;;;;;;6.35;4.07;;;;;;;18.51;100.00;100381.22;4915704;29;20381;-85
2023/06/11 03:32:45;;;;;;;4.10;3.70;;;;;;;18.63;100.00;100374.91;4915821;29;20055;-85
2023/06/11 03:35:14;;;;;;;6.07;4.10;;;;;;;18.58;100.00;100385.41;4914599;29;20049;-86
2023/06/11 03:37:42;;;;;;;5.20;2.88;;;;;;;18.54;100.00;100386.06;4915835;29;20483;-85
2023/06/11 03:40:15;;;;;;;5.20;3.13;;;;;;;18.59;100.00;100385.06;4914595;29;20543;-86
2023/06/11 03:42:44;;;;;;;3.90;3.45;;;;;;;18.59;100.00;100378.72;4914569;29;20052;-86
2023/06/11 03:45:13;;;;;;;4.82;3.75;;;;;;;18.59;100.00;100378.72;4914394;29;20044;-85
2023/06/11 03:47:41;;;;;;;3.33;3.03;;;;;;;18.61;100.00;100384.72;4914537;29;20048;-86
2023/06/11 03:50:10;;;;;;;4.65;3.33;;;;;;;18.76;100.00;100386.03;4914501;29;20051;-85
2023/06/11 03:52:37;;;;;;;3.35;2.90;;;;;;;18.70;100.00;100379.91;4914861;29;20072;-85
2023/06/11 03:55:06;;;;;;;3.85;3.28;;;;;;;18.84;100.00;100389.88;4898724;29;20040;-84
2023/06/11 03:57:34;;;;;;;5.05;3.63;;;;;;;18.91;100.00;100395.69;4915748;29;20063;-85
2023/06/11 04:00:03;;;;;;;5.53;3.35;;;;;;;18.85;100.00;100400.63;4914558;29;20040;-85
2023/06/11 04:02:40;;;;;;;4.13;3.28;;;;;;;18.77;100.00;100391.25;4915562;29;20063;-85
2023/06/11 04:05:12;;;;;;;4.35;3.38;;;;;;;18.69;100.00;100406.00;4914419;29;20109;-84
2023/06/11 04:07:43;;;;;;;4.03;3.50;;;;;;;18.66;100.00;100398.34;4914483;29;20048;-83
2023/06/11 04:10:11;;;;;;;3.95;3.47;;;;;;;18.77;100.00;100394.03;4914264;29;20407;-83
2023/06/11 04:12:39;;;;;;;3.05;2.45;;;;;;;18.74;100.00;100382.81;4914975;29;20059;-84
2023/06/11 04:15:08;;;;;;;3.40;3.00;;;;;;;18.80;100.00;100390.59;4915522;29;20051;-82
2023/06/11 04:17:39;;;;;;;3.15;2.85;;;;;;;18.74;100.00;100380.84;4915486;29;20376;-83
2023/06/11 04:20:08;;;;;;;4.35;2.47;;;;;;;18.92;100.00;100402.88;4914265;29;20052;-83
2023/06/11 04:22:37;;;;;;;3.28;2.97;;;;;;;18.96;100.00;100392.69;4915408;29;20040;-83
2023/06/11 04:25:06;;;;;;;4.60;2.53;;;;;;;19.02;100.00;100402.41;4898261;29;20040;-80
2023/06/11 04:27:36;;;;;;;3.72;3.08;;;;;;;19.25;99.53;100402.03;4917434;29;20044;-80
2023/06/11 04:30:09;;;;;;;3.30;2.78;;;;;;;19.33;99.03;100412.25;4916398;29;20062;-80
2023/06/11 04:32:41;;;;;;;3.97;3.10;;;;;;;19.40;99.49;100405.31;4916342;29;20542;-82
2023/06/11 04:35:10;;;;;;;4.63;2.72;;;;;;;19.52;99.26;100412.84;4916785;29;20059;-83
2023/06/11 04:37:45;;;;;;;8.35;3.25;;;;;;;19.63;98.56;100410.41;4917258;29;20051;-80
2023/06/11 04:40:23;;;;;;;4.07;2.60;;;;;;;19.82;98.41;100420.94;4900506;29;20496;-76
2023/06/11 04:42:52;;;;;;;3.47;2.92;;;;;;;20.00;97.46;100411.25;4900634;29;20051;-78
2023/06/11 04:45:20;;;;;;;4.35;2.90;;;;;;;20.20;97.35;100418.97;4901526;29;20063;-78
2023/06/11 04:47:49;;;;;;;4.22;2.97;;;;;;;20.23;98.35;100415.53;4900280;29;20040;-76
2023/06/11 04:50:22;;;;;;;3.67;3.28;;;;;;;20.45;99.39;100422.53;4897493;29;20522;-78
2023/06/11 04:52:56;;;;;;;3.95;3.25;;;;;;;20.60;97.43;100417.38;4885950;29;20053;-78
2023/06/11 04:55:26;;;;;;;3.33;3.03;;;;;;;20.43;96.21;100415.69;4907841;29;20051;-77
2023/06/11 04:57:57;;;;;;;3.20;2.90;;;;;;;20.62;96.22;100407.53;4899418;29;20052;-78
2023/06/11 05:00:29;;;;;;;5.05;3.00;;;;;;;20.68;96.54;100414.44;4899571;29;20055;-77
2023/06/11 05:03:02;;;;;;;3.42;2.90;;;;;;;20.68;97.45;100422.00;4917521;29;20388;-78
2023/06/11 05:05:32;;;;;;;4.80;3.20;;;;;;;20.88;96.71;100422.97;4898442;29;20063;-78
2023/06/11 05:08:01;;;;;;;3.35;3.05;;;;;;;20.73;97.14;100418.16;4891253;29;20069;-78
2023/06/11 05:10:31;;;;;;;3.22;2.78;;;;;;;20.90;95.93;100420.66;4899758;29;20063;-77
2023/06/11 05:12:59;;;;;;;7.75;3.65;;;;;;;21.15;94.63;100428.06;4900088;29;20048;-77
2023/06/11 05:15:27;;;;;;;4.43;3.03;;;;;;;21.37;93.21;100428.63;4914885;29;20056;-77
2023/06/11 05:17:55;;;;;;;4.20;3.00;;;;;;;21.34;92.86;100435.72;4915434;29;20059;-78
2023/06/11 05:20:26;;;;;;;4.82;3.60;;;;;;;21.37;93.11;100435.00;4915701;29;20048;-77
2023/06/11 05:22:59;;;;;;;3.78;3.38;;;;;;;21.19;93.82;100424.22;4911854;29;20059;-77
2023/06/11 05:25:29;;;;;;;3.75;2.90;;;;;;;21.32;94.04;100429.72;4898298;29;20063;-77
2023/06/11 05:28:01;;;;;;;4.32;3.28;;;;;;;21.48;92.73;100424.16;4853434;29;1312482;-77
2023/06/11 05:30:36;;;;;;;4.30;3.10;;;;;;;21.61;92.29;100427.66;4914613;29;20056;-77
2023/06/11 05:33:07;;;;;;;4.18;3.38;;;;;;;21.72;92.46;100434.34;4911165;29;20044;-77
2023/06/11 05:35:36;;;;;;;6.05;3.45;;;;;;;21.79;92.61;100442.03;4898746;29;20071;-77
2023/06/11 05:38:06;;;;;;;4.50;3.50;;;;;;;21.81;92.46;100430.53;4915322;29;20040;-77
2023/06/11 05:40:36;;;;;;;5.18;3.88;;;;;;;21.58;92.44;100433.94;4900351;29;20044;-77
2023/06/11 05:43:06;;;;;;;5.50;3.63;;;;;;;21.82;91.37;100430.19;4916342;29;20044;-77
2023/06/11 05:45:35;;;;;;;6.88;4.00;;;;;;;21.99;90.28;100445.69;4900433;29;20048;-77
2023/06/11 05:48:06;;;;;;;4.97;3.97;;;;;;;22.06;89.94;100442.28;4915363;29;20056;-77
2023/06/11 05:50:36;;;;;;;3.95;3.55;;;;;;;22.13;89.83;100425.72;4915670;29;20052;-77
2023/06/11 05:53:04;;;;;;;4.75;3.55;;;;;;;22.16;90.60;100443.69;4914229;29;20048;-78
2023/06/11 05:55:32;;;;;;;4.38;3.72;;;;;;;22.09;90.44;100435.19;4900377;29;20360;-78
2023/06/11 05:58:01;;;;;;;5.30;3.78;;;;;;;22.18;91.26;100441.34;4917316;29;20040;-78
2023/06/11 06:00:29;;;;;;;5.38;3.72;;;;;;;22.17;89.96;100436.13;4915713;29;20056;-78
2023/06/11 06:02:57;;;;;;;6.97;3.13;;;;;;;22.40;88.18;100445.41;4915150;29;20040;-77
2023/06/11 06:05:28;;;;;;;3.53;3.20;;;;;;;22.51;87.34;100444.84;4908206;29;20043;-77
2023/06/11 06:07:56;;;;;;;4.45;3.30;;;;;;;22.65;86.21;100447.16;4891959;29;20059;-78
2023/06/11 06:10:25;;;;;;;3.00;2.58;;;;;;;22.69;84.78;100448.06;4900033;29;20510;-78
2023/06/11 06:12:53;;;;;;;3.65;3.08;;;;;;;22.86;83.32;100448.81;4899591;29;20048;-78
2023/06/11 06:15:21;;;;;;;2.92;2.65;;;;;;;22.81;82.26;100455.47;4916754;29;20051;-78
2023/06/11 06:17:50;;;;;;;3.28;2.47;;;;;;;22.97;81.58;100447.00;4896404;29;20104;-78
2023/06/11 06:20:26;;;;;;;3.97;3.03;;;;;;;22.88;82.56;100452.03;4898946;29;20415;-78
2023/06/11 06:22:54;;;;;;;4.18;3.40;;;;;;;22.96;83.08;100439.81;4883495;29;20052;-78
2023/06/11 06:25:24;;;;;;;3.30;2.97;;;;;;;22.93;81.00;100438.56;4899287;29;20055;-78
2023/06/11 06:27:53;;;;;;;4.38;3.30;;;;;;;23.06;80.75;100438.41;4899574;29;20059;-77
2023/06/11 06:30:22;;;;;;;3.55;2.75;;;;;;;23.33;80.57;100444.13;4899452;29;20516;-78
2023/06/11 06:32:50;;;;;;;3.17;2.80;;;;;;;23.45;80.33;100435.56;4914881;29;20404;-78
2023/06/11 06:35:18;;;;;;;4.22;2.83;;;;;;;23.35;78.37;100442.56;4897085;29;20044;-77
2023/06/11 06:37:47;;;;;;;5.82;2.90;;;;;;;23.51;79.16;100447.22;4914423;29;20055;-77
2023/06/11 06:40:15;;;;;;;3.40;2.65;;;;;;;23.58;78.95;100443.75;4891144;29;20048;-77
2023/06/11 06:42:43;;;;;;;3.45;3.08;;;;;;;23.68;77.08;100447.91;4915648;29;20484;-77
2023/06/11 06:45:16;;;;;;;4.28;3.08;;;;;;;23.74;76.28;100449.19;4898791;29;20048;-77
2023/06/11 06:47:45;;;;;;;2.92;2.70;;;;;;;23.72;74.95;100446.81;4915093;29;20056;-77
2023/06/11 06:50:13;;;;;;;3.00;2.67;;;;;;;23.86;73.55;100453.78;4898749;29;20044;-77
2023/06/11 06:52:42;;;;;;;3.95;2.45;;;;;;;23.87;74.28;100447.03;4899094;29;20516;-77
2023/06/11 06:55:10;;;;;;;5.22;2.85;;;;;;;23.98;74.64;100444.38;4898631;29;20056;-77
2023/06/11 06:57:39;;;;;;;3.72;2.92;;;;;;;23.86;74.23;100431.44;4899040;29;20060;-77
2023/06/11 07:00:09;;;;;;;3.33;2.80;;;;;;;24.07;74.42;100444.97;4914738;29;20055;-77
2023/06/11 07:02:38;;;;;;;2.85;2.22;;;;;;;24.10;72.51;100454.59;4914975;29;20044;-77
2023/06/11 07:05:08;;;;;;;2.65;2.40;;;;;;;24.05;72.95;100444.47;4897954;29;20037;-77
2023/06/11 07:07:36;;;;;;;3.88;2.85;;;;;;;24.08;71.53;100459.72;4898862;29;20052;-77
2023/06/11 07:10:08;;;;;;;7.30;3.22;;;;;;;24.29;72.92;100462.03;4898776;29;20060;-77
2023/06/11 07:12:37;;;;;;;4.97;3.03;;;;;;;24.36;72.69;100448.19;4891948;29;20369;-77
2023/06/11 07:15:06;;;;;;;6.13;2.95;;;;;;;24.43;71.04;100441.84;4883725;29;20049;-77
2023/06/11 07:17:34;;;;;;;5.30;3.55;;;;;;;24.50;73.75;100449.53;4914303;29;20484;-77
2023/06/11 07:20:04;;;;;;;4.38;3.28;;;;;;;24.52;71.94;100459.16;4915577;29;20048;-75
2023/06/11 07:22:32;;;;;;;5.75;3.13;;;;;;;24.64;71.49;100454.53;4898024;29;20048;-74
2023/06/11 07:25:00;;;;;;;3.83;2.95;;;;;;;24.77;70.96;100452.25;4913050;29;20431;-74
2023/06/11 07:27:29;;;;;;;4.35;2.95;;;;;;;24.74;70.60;100444.66;4913857;29;20044;-74
2023/06/11 07:29:57;;;;;;;3.20;2.90;;;;;;;24.75;69.32;100449.06;4915088;29;20048;-74
2023/06/11 07:32:25;;;;;;;6.28;2.88;;;;;;;24.90;70.04;100447.25;4881679;29;20052;-75
2023/06/11 07:34:53;;;;;;;3.50;3.05;;;;;;;24.73;68.61;100443.03;4897788;29;20048;-75
2023/06/11 07:37:21;;;;;;;4.05;2.85;;;;;;;24.88;69.92;100441.25;4914341;29;20376;-75
2023/06/11 07:39:49;;;;;;;4.93;3.50;;;;;;;24.81;68.43;100436.38;4914033;29;20047;-75
2023/06/11 07:42:21;;;;;;;5.25;2.72;;;;;;;24.98;68.83;100454.56;4913918;29;20075;-74
2023/06/11 07:44:49;;;;;;;4.13;2.92;;;;;;;25.08;67.47;100442.66;4897997;29;20052;-75
2023/06/11 07:47:18;;;;;;;3.70;2.55;;;;;;;25.11;67.42;100443.09;4915440;29;20048;-74
2023/06/11 07:49:46;;;;;;;4.50;2.60;;;;;;;25.24;67.72;100455.63;4915252;29;20051;-75
2023/06/11 07:52:15;;;;;;;4.40;2.72;;;;;;;25.18;67.58;100445.97;4914006;29;20487;-75
2023/06/11 07:54:43;;;;;;;4.32;2.85;;;;;;;25.30;69.02;100453.28;4896726;29;20048;-75
2023/06/11 07:57:12;;;;;;;2.88;2.60;;;;;;;25.16;67.38;100451.16;4914843;29;20121;-75
2023/06/11 07:59:43;;;;;;;3.03;2.72;;;;;;;25.25;67.85;100434.03;4914884;29;20052;-75
2023/06/11 08:02:11;;;;;;;3.80;3.00;;;;;;;25.26;67.40;100446.84;4917692;29;20504;-75
2023/06/11 08:04:39;;;;;;;4.97;2.83;;;;;;;25.32;66.73;100453.72;4918066;29;20055;-75
2023/06/11 08:07:07;;;;;;;3.65;3.10;;;;;;;25.38;65.70;100449.38;4918744;29;20044;-76
2023/06/11 08:09:37;;;;;;;5.38;3.88;;;;;;;25.50;65.79;100451.06;4918769;29;20381;-74
2023/06/11 08:12:07;;;;;;;5.40;3.13;;;;;;;25.51;65.92;100447.06;4885993;29;20097;-75
2023/06/11 08:14:36;;;;;;;4.03;3.00;;;;;;;25.53;66.88;100443.88;4918711;29;20048;-75
2023/06/11 08:17:04;;;;;;;4.38;2.80;;;;;;;25.53;66.30;100455.09;4918592;29;20064;-75
2023/06/11 08:19:32;;;;;;;4.07;2.78;;;;;;;25.47;64.10;100438.63;4918506;29;20056;-75
2023/06/11 08:22:01;;;;;;;4.32;3.20;;;;;;;25.66;65.22;100445.22;4918421;29;20241;-75
2023/06/11 08:24:30;;;;;;;3.35;3.00;;;;;;;25.73;64.43;100442.50;4918382;29;20048;-75
2023/06/11 08:26:58;;;;;;;2.70;2.50;;;;;;;25.65;62.11;100435.22;4901377;29;20388;-74
2023/06/11 08:29:26;;;;;;;2.80;2.60;;;;;;;25.85;64.49;100437.78;4918220;29;20052;-76
2023/06/11 08:31:54;;;;;;;3.45;2.35;;;;;;;25.83;64.88;100440.16;4917161;29;20051;-76
2023/06/11 08:34:22;;;;;;;2.95;2.50;;;;;;;25.92;62.30;100446.25;4918170;29;20407;-75
2023/06/11 08:36:51;;;;;;;5.50;2.78;;;;;;;26.02;62.41;100447.50;4918256;29;20052;-76
2023/06/11 08:39:19;;;;;;;4.18;2.38;;;;;;;26.02;62.20;100445.53;4918143;29;20059;-76
2023/06/11 08:41:47;;;;;;;2.67;2.45;;;;;;;26.35;63.43;100453.34;4918029;29;20059;-76
2023/06/11 08:44:15;;;;;;;3.15;2.65;;;;;;;26.28;60.95;100448.50;4918036;29;20071;-76
2023/06/11 08:46:44;;;;;;;2.75;2.53;;;;;;;26.25;61.88;100450.06;4918060;29;20075;-76
2023/06/11 08:49:21;;;;;;;2.85;2.55;;;;;;;26.35;60.58;100450.53;4918368;29;20063;-76
2023/06/11 08:51:49;;;;;;;4.30;2.42;;;;;;;26.37;59.28;100451.75;4918028;29;20048;-76
2023/06/11 08:54:18;;;;;;;4.32;2.47;;;;;;;26.48;59.57;100448.22;4917999;29;20052;-76
2023/06/11 08:56:45;;;;;;;2.67;2.33;;;;;;;26.54;59.90;100447.44;4918096;29;20044;-76
2023/06/11 08:59:13;;;;;;;2.95;2.55;;;;;;;26.66;59.59;100451.91;4918131;29;20052;-76
2023/06/11 09:01:41;;;;;;;3.05;2.70;;;;;;;26.59;58.60;100442.66;4918024;29;20051;-76
2023/06/11 09:04:10;;;;;;;4.00;2.40;;;;;;;26.78;56.88;100447.94;4917803;29;20165;-76
2023/06/11 09:06:48;;;;;;;2.92;2.25;;;;;;;26.87;56.53;100449.56;4901123;29;20487;-76
2023/06/11 09:09:17;;;;;;;3.08;2.35;;;;;;;26.92;53.83;100446.38;4917936;29;20055;-76
2023/06/11 09:11:46;;;;;;;2.63;2.08;;;;;;;26.95;53.88;100456.84;4917338;29;20052;-76
2023/06/11 09:14:14;;;;;;;1.65;1.52;;;;;;;26.98;52.48;100452.44;4917696;29;20067;-76
2023/06/11 09:16:45;;;;;;;1.92;1.70;;;;;;;27.09;53.11;100461.69;4917402;29;20040;-76
2023/06/11 09:19:19;;;;;;;4.43;2.08;;;;;;;27.04;53.03;100454.47;4917725;29;20048;-76
2023/06/11 09:21:56;;;;;;;3.15;1.95;;;;;;;27.17;53.51;100456.91;4917048;29;20055;-75
2023/06/11 09:24:25;;;;;;;2.35;2.15;;;;;;;27.16;50.03;100463.69;4914422;29;20051;-76
2023/06/11 09:26:57;;;;;;;2.38;2.10;;;;;;;27.35;53.04;100468.97;4903546;29;20063;-77
2023/06/11 09:29:28;;;;;;;1.95;1.85;;;;;;;27.42;52.01;100467.38;4916924;29;20044;-76
2023/06/11 09:32:04;;;;;;;3.42;2.17;;;;;;;27.46;51.74;100473.81;4917168;29;20055;-76
2023/06/11 09:34:44;;;;;;;2.28;2.05;;;;;;;27.37;48.70;100462.97;4902127;29;20060;-76
2023/06/11 09:37:14;;;;;;;2.45;2.25;;;;;;;27.45;51.62;100460.94;4917364;29;20052;-76
2023/06/11 09:39:45;;;;;;;2.65;2.45;;;;;;;27.62;51.46;100465.00;4916217;29;20060;-76
2023/06/11 09:42:26;;;;;;;3.42;2.80;;;;;;;27.74;52.03;100467.41;4915873;29;20040;-76
2023/06/11 09:44:59;;;;;;;3.28;2.72;;;;;;;27.72;50.19;100474.66;4900243;29;20040;-76
2023/06/11 09:47:30;;;;;;;2.67;2.47;;;;;;;27.70;52.55;100468.63;4917057;29;20066;-76
2023/06/11 09:49:58;;;;;;;4.00;2.15;;;;;;;27.82;51.37;100471.03;4909959;29;20047;-76
2023/06/11 09:52:28;;;;;;;3.03;2.72;;;;;;;27.86;50.09;100465.41;4922700;29;20040;-80
2023/06/11 09:54:57;;;;;;;3.10;2.80;;;;;;;28.15;50.34;100463.34;4925108;29;20059;-81
2023/06/11 09:57:27;;;;;;;5.80;3.65;;;;;;;28.44;49.68;100471.75;4923298;29;20044;-81
2023/06/11 09:59:56;;;;;;;4.47;3.08;;;;;;;28.73;48.57;100451.13;4928776;29;20055;-81
2023/06/11 10:02:24;;;;;;;3.70;2.80;;;;;;;29.15;47.33;100459.81;4931037;29;20052;-81
2023/06/11 10:04:53;;;;;;;4.63;2.58;;;;;;;29.08;47.36;100454.22;4924890;29;20051;-79
2023/06/11 10:07:23;;;;;;;4.55;3.15;;;;;;;28.88;46.82;100457.53;4918519;29;20044;-80
2023/06/11 10:09:52;;;;;;;3.38;3.08;;;;;;;29.19;42.41;100454.97;4917168;29;20060;-79
2023/06/11 10:12:21;;;;;;;3.20;2.42;;;;;;;29.57;42.29;100456.31;4918594;29;20044;-79
2023/06/11 10:14:51;;;;;;;5.05;2.38;;;;;;;29.94;43.36;100454.78;4916203;29;20052;-80
2023/06/11 10:17:22;;;;;;;2.47;2.17;;;;;;;29.80;41.65;100454.91;4917579;29;20048;-80
2023/06/11 10:19:51;;;;;;;2.13;2.00;;;;;;;29.99;43.81;100464.78;4908532;29;20399;-79
2023/06/11 10:22:34;;;;;;;3.97;2.90;;;;;;;30.00;44.14;100461.56;4917276;29;20630;-79
2023/06/11 10:25:03;;;;;;;3.95;2.50;;;;;;;29.32;45.35;100458.06;4916984;29;20056;-79
2023/06/11 10:27:40;;;;;;;3.03;2.45;;;;;;;29.90;42.95;100459.66;4917439;29;20510;-80
2023/06/11 10:30:08;;;;;;;2.45;2.25;;;;;;;30.47;41.59;100451.81;4884618;29;20056;-80
2023/06/11 10:32:53;;;;;;;2.95;2.65;;;;;;;30.49;45.96;100455.03;4918424;29;20047;-81
2023/06/11 10:35:24;;;;;;;4.55;2.90;;;;;;;31.00;42.42;100457.22;4917896;29;20052;-79
2023/06/11 10:38:04;;;;;;;3.63;2.47;;;;;;;30.64;43.17;100458.47;4917547;29;20048;-80
2023/06/11 10:40:37;;;;;;;4.50;2.85;;;;;;;31.04;40.00;100462.81;4916686;29;20051;-80
2023/06/11 10:43:20;;;;;;;3.58;2.95;;;;;;;31.08;40.26;100463.59;4915905;29;20048;-80
2023/06/11 10:46:02;;;;;;;2.25;2.05;;;;;;;31.80;38.80;100450.34;4915913;29;20048;-81
2023/06/11 10:48:31;;;;;;;2.90;2.60;;;;;;;31.94;40.34;100459.81;4915724;29;20048;-84
2023/06/11 10:51:01;;;;;;;3.25;2.80;;;;;;;31.13;39.51;100459.47;4915665;29;20128;-81
2023/06/11 10:53:37;;;;;;;3.15;2.60;;;;;;;30.75;41.03;100458.38;4914794;29;20063;-84
2023/06/11 10:56:05;;;;;;;3.35;3.05;;;;;;;30.28;41.44;100454.06;4915418;29;20061;-81
2023/06/11 10:58:34;;;;;;;3.42;2.67;;;;;;;30.28;42.53;100448.41;4914953;29;20048;-80
2023/06/11 11:01:06;;;;;;;4.82;2.70;;;;;;;30.31;41.97;100443.94;4915081;29;20048;-81
2023/06/11 11:03:35;;;;;;;2.30;2.13;;;;;;;30.69;42.39;100448.78;4898296;29;20361;-81
2023/06/11 11:06:04;;;;;;;3.28;2.97;;;;;;;30.63;42.43;100450.44;4913867;29;20044;-81
2023/06/11 11:08:32;;;;;;;3.90;3.55;;;;;;;31.08;41.74;100458.72;4894624;29;20507;-81
2023/06/11 11:11:00;;;;;;;3.20;2.90;;;;;;;31.36;41.08;100444.59;4914036;29;20052;-81
2023/06/11 11:13:29;;;;;;;5.97;3.20;;;;;;;31.24;42.43;100454.47;4915521;29;20411;-81
2023/06/11 11:16:00;;;;;;;3.05;2.58;;;;;;;31.17;41.39;100446.09;4916039;29;20055;-80
2023/06/11 11:18:28;;;;;;;3.85;2.42;;;;;;;31.00;41.42;100442.28;4898540;29;20052;-81
2023/06/11 11:20:57;;;;;;;3.33;3.03;;;;;;;30.13;40.53;100446.97;4914647;29;20063;-82
2023/06/11 11:23:26;;;;;;;2.72;2.42;;;;;;;30.19;42.75;100448.09;4911315;29;20052;-82
2023/06/11 11:25:55;;;;;;;3.72;2.78;;;;;;;30.13;43.14;100442.13;4915219;29;20055;-80
2023/06/11 11:28:23;;;;;;;3.05;2.85;;;;;;;30.16;44.25;100440.50;4913434;29;20044;-80
2023/06/11 11:30:51;;;;;;;3.05;2.72;;;;;;;30.12;43.51;100437.72;4914823;29;20048;-80
2023/06/11 11:33:21;;;;;;;5.43;2.75;;;;;;;29.76;44.42;100435.22;4912459;29;20484;-82
2023/06/11 11:35:55;;;;;;;2.92;2.63;;;;;;;29.47;44.59;100427.75;4914108;29;20052;-81